sensor_id;sensor_type;location;lat;lon;timestamp;P1;durP1;ratioP1;P2;durP2;ratioP2
13855;SDS011;6998;53.608;9.958;2022-10-16T00:01:35;9.48;;;8.48;;
13855;SDS011;6998;53.608;9.958;2022-10-16T00:04:02;10.05;;;7.65;;
13855;SDS011;6998;53.608;9.958;2022-10-16T00:06:29;10.35;;;9.02;;
13855;SDS011;6998;53.608;9.958;2022-10-16T00:08:56;8.65;;;7.85;;
13855;SDS011;6998;53.608;9.958;2022-10-16T00:11:24;10.38;;;8.80;;
13855;SDS011;6998;53.608;9.958;2022-10-16T00:13:54;11.93;;;8.07;;
13855;SDS011;6998;53.608;9.958;2022-10-16T00:16:23;11.15;;;8.18;;
13855;SDS011;6998;53.608;9.958;2022-10-16T00:18:51;9.73;;;7.07;;
13855;SDS011;6998;53.608;9.958;2022-10-16T00:21:19;8.88;;;6.90;;
13855;SDS011;6998;53.608;9.958;2022-10-16T00:23:50;8.88;;;7.18;;
13855;SDS011;6998;53.608;9.958;2022-10-16T00:26:17;8.00;;;6.75;;
13855;SDS011;6998;53.608;9.958;2022-10-16T00:28:45;8.07;;;5.78;;
13855;SDS011;6998;53.608;9.958;2022-10-16T00:31:12;7.65;;;5.53;;
13855;SDS011;6998;53.608;9.958;2022-10-16T00:33:39;8.18;;;5.50;;
13855;SDS011;6998;53.608;9.958;2022-10-16T00:36:09;8.02;;;5.18;;
13855;SDS011;6998;53.608;9.958;2022-10-16T00:38:38;8.00;;;5.05;;
13855;SDS011;6998;53.608;9.958;2022-10-16T00:41:05;5.55;;;4.75;;
13855;SDS011;6998;53.608;9.958;2022-10-16T00:43:36;4.90;;;3.97;;
13855;SDS011;6998;53.608;9.958;2022-10-16T00:46:05;7.53;;;4.32;;
13855;SDS011;6998;53.608;9.958;2022-10-16T00:48:39;6.55;;;4.30;;
13855;SDS011;6998;53.608;9.958;2022-10-16T00:51:05;6.05;;;3.60;;
13855;SDS011;6998;53.608;9.958;2022-10-16T00:53:34;5.90;;;3.78;;
13855;SDS011;6998;53.608;9.958;2022-10-16T00:56:02;7.30;;;3.63;;
13855;SDS011;6998;53.608;9.958;2022-10-16T00:58:30;4.20;;;3.20;;
13855;SDS011;6998;53.608;9.958;2022-10-16T01:00:56;4.72;;;3.05;;
13855;SDS011;6998;53.608;9.958;2022-10-16T01:03:24;5.78;;;3.35;;
13855;SDS011;6998;53.608;9.958;2022-10-16T01:05:56;8.02;;;2.83;;
13855;SDS011;6998;53.608;9.958;2022-10-16T01:08:36;3.15;;;2.83;;
13855;SDS011;6998;53.608;9.958;2022-10-16T01:11:11;5.47;;;3.10;;
13855;SDS011;6998;53.608;9.958;2022-10-16T01:13:46;5.82;;;3.45;;
13855;SDS011;6998;53.608;9.958;2022-10-16T01:16:17;6.75;;;3.22;;
13855;SDS011;6998;53.608;9.958;2022-10-16T01:18:56;5.63;;;3.00;;
13855;SDS011;6998;53.608;9.958;2022-10-16T01:21:28;4.97;;;3.17;;
13855;SDS011;6998;53.608;9.958;2022-10-16T01:24:01;3.65;;;3.30;;
13855;SDS011;6998;53.608;9.958;2022-10-16T01:26:38;5.47;;;3.33;;
13855;SDS011;6998;53.608;9.958;2022-10-16T01:29:18;7.35;;;3.30;;
13855;SDS011;6998;53.608;9.958;2022-10-16T01:31:50;6.32;;;3.03;;
13855;SDS011;6998;53.608;9.958;2022-10-16T01:34:23;5.22;;;2.60;;
13855;SDS011;6998;53.608;9.958;2022-10-16T01:36:59;5.15;;;2.88;;
13855;SDS011;6998;53.608;9.958;2022-10-16T01:39:32;4.40;;;2.70;;
13855;SDS011;6998;53.608;9.958;2022-10-16T01:42:03;5.82;;;2.80;;
13855;SDS011;6998;53.608;9.958;2022-10-16T01:44:47;5.75;;;2.90;;
13855;SDS011;6998;53.608;9.958;2022-10-16T01:47:15;4.68;;;2.50;;
13855;SDS011;6998;53.608;9.958;2022-10-16T01:49:43;7.82;;;2.60;;
13855;SDS011;6998;53.608;9.958;2022-10-16T01:52:12;4.10;;;2.60;;
13855;SDS011;6998;53.608;9.958;2022-10-16T01:54:43;5.50;;;2.45;;
13855;SDS011;6998;53.608;9.958;2022-10-16T01:57:13;5.72;;;2.50;;
13855;SDS011;6998;53.608;9.958;2022-10-16T01:59:42;7.07;;;2.53;;
13855;SDS011;6998;53.608;9.958;2022-10-16T02:02:13;6.43;;;2.65;;
13855;SDS011;6998;53.608;9.958;2022-10-16T02:04:43;3.20;;;2.10;;
13855;SDS011;6998;53.608;9.958;2022-10-16T02:07:12;6.28;;;2.63;;
13855;SDS011;6998;53.608;9.958;2022-10-16T02:09:39;6.03;;;2.28;;
13855;SDS011;6998;53.608;9.958;2022-10-16T02:12:08;2.58;;;2.10;;
13855;SDS011;6998;53.608;9.958;2022-10-16T02:14:40;3.00;;;2.40;;
13855;SDS011;6998;53.608;9.958;2022-10-16T02:17:11;3.55;;;2.30;;
13855;SDS011;6998;53.608;9.958;2022-10-16T02:19:39;4.43;;;2.42;;
13855;SDS011;6998;53.608;9.958;2022-10-16T02:22:08;4.65;;;2.40;;
13855;SDS011;6998;53.608;9.958;2022-10-16T02:24:43;5.80;;;2.45;;
13855;SDS011;6998;53.608;9.958;2022-10-16T02:27:17;4.32;;;2.40;;
13855;SDS011;6998;53.608;9.958;2022-10-16T02:29:52;3.92;;;2.42;;
13855;SDS011;6998;53.608;9.958;2022-10-16T02:32:24;3.90;;;2.20;;
13855;SDS011;6998;53.608;9.958;2022-10-16T02:34:57;4.05;;;2.13;;
13855;SDS011;6998;53.608;9.958;2022-10-16T02:37:26;6.55;;;2.45;;
13855;SDS011;6998;53.608;9.958;2022-10-16T02:39:54;4.20;;;2.05;;
13855;SDS011;6998;53.608;9.958;2022-10-16T02:42:27;4.97;;;2.00;;
13855;SDS011;6998;53.608;9.958;2022-10-16T02:44:54;4.05;;;2.38;;
13855;SDS011;6998;53.608;9.958;2022-10-16T02:47:21;4.63;;;2.10;;
13855;SDS011;6998;53.608;9.958;2022-10-16T02:49:47;9.55;;;2.45;;
13855;SDS011;6998;53.608;9.958;2022-10-16T02:52:15;4.47;;;2.05;;
13855;SDS011;6998;53.608;9.958;2022-10-16T02:54:42;3.83;;;1.92;;
13855;SDS011;6998;53.608;9.958;2022-10-16T02:57:09;5.65;;;1.88;;
13855;SDS011;6998;53.608;9.958;2022-10-16T02:59:36;3.00;;;2.10;;
13855;SDS011;6998;53.608;9.958;2022-10-16T03:02:03;5.10;;;2.00;;
13855;SDS011;6998;53.608;9.958;2022-10-16T03:04:30;3.83;;;2.08;;
13855;SDS011;6998;53.608;9.958;2022-10-16T03:06:56;2.90;;;1.75;;
13855;SDS011;6998;53.608;9.958;2022-10-16T03:09:24;8.52;;;2.22;;
13855;SDS011;6998;53.608;9.958;2022-10-16T03:11:51;5.18;;;2.03;;
13855;SDS011;6998;53.608;9.958;2022-10-16T03:14:18;3.80;;;1.98;;
13855;SDS011;6998;53.608;9.958;2022-10-16T03:16:45;4.75;;;2.00;;
13855;SDS011;6998;53.608;9.958;2022-10-16T03:19:11;3.35;;;1.88;;
13855;SDS011;6998;53.608;9.958;2022-10-16T03:21:38;4.30;;;2.05;;
13855;SDS011;6998;53.608;9.958;2022-10-16T03:24:05;5.55;;;2.08;;
13855;SDS011;6998;53.608;9.958;2022-10-16T03:26:33;5.05;;;1.98;;
13855;SDS011;6998;53.608;9.958;2022-10-16T03:29:00;4.80;;;2.10;;
13855;SDS011;6998;53.608;9.958;2022-10-16T03:31:27;7.10;;;1.98;;
13855;SDS011;6998;53.608;9.958;2022-10-16T03:33:54;5.90;;;2.10;;
13855;SDS011;6998;53.608;9.958;2022-10-16T03:36:21;4.45;;;2.10;;
13855;SDS011;6998;53.608;9.958;2022-10-16T03:38:47;6.00;;;2.13;;
13855;SDS011;6998;53.608;9.958;2022-10-16T03:41:14;4.57;;;2.20;;
13855;SDS011;6998;53.608;9.958;2022-10-16T03:43:42;5.53;;;1.95;;
13855;SDS011;6998;53.608;9.958;2022-10-16T03:46:09;4.88;;;1.98;;
13855;SDS011;6998;53.608;9.958;2022-10-16T03:48:36;3.00;;;1.67;;
13855;SDS011;6998;53.608;9.958;2022-10-16T03:51:04;5.85;;;1.80;;
13855;SDS011;6998;53.608;9.958;2022-10-16T03:53:31;5.03;;;2.22;;
13855;SDS011;6998;53.608;9.958;2022-10-16T03:55:58;3.67;;;2.10;;
13855;SDS011;6998;53.608;9.958;2022-10-16T03:58:25;4.97;;;2.00;;
13855;SDS011;6998;53.608;9.958;2022-10-16T04:00:54;4.70;;;1.95;;
13855;SDS011;6998;53.608;9.958;2022-10-16T04:03:20;4.45;;;2.08;;
13855;SDS011;6998;53.608;9.958;2022-10-16T04:05:48;4.22;;;2.10;;
13855;SDS011;6998;53.608;9.958;2022-10-16T04:08:14;4.28;;;1.80;;
13855;SDS011;6998;53.608;9.958;2022-10-16T04:10:42;6.55;;;2.35;;
13855;SDS011;6998;53.608;9.958;2022-10-16T04:13:08;7.35;;;2.17;;
13855;SDS011;6998;53.608;9.958;2022-10-16T04:15:35;3.67;;;2.03;;
13855;SDS011;6998;53.608;9.958;2022-10-16T04:18:04;3.15;;;2.08;;
13855;SDS011;6998;53.608;9.958;2022-10-16T04:20:30;7.97;;;2.03;;
13855;SDS011;6998;53.608;9.958;2022-10-16T04:22:57;4.50;;;1.85;;
13855;SDS011;6998;53.608;9.958;2022-10-16T04:25:24;3.95;;;1.80;;
13855;SDS011;6998;53.608;9.958;2022-10-16T04:27:52;4.20;;;1.70;;
13855;SDS011;6998;53.608;9.958;2022-10-16T04:30:19;3.72;;;1.75;;
13855;SDS011;6998;53.608;9.958;2022-10-16T04:32:47;4.35;;;1.95;;
13855;SDS011;6998;53.608;9.958;2022-10-16T04:35:15;4.07;;;1.80;;
13855;SDS011;6998;53.608;9.958;2022-10-16T04:37:42;4.55;;;1.90;;
13855;SDS011;6998;53.608;9.958;2022-10-16T04:40:09;2.85;;;1.67;;
13855;SDS011;6998;53.608;9.958;2022-10-16T04:42:36;5.13;;;1.80;;
13855;SDS011;6998;53.608;9.958;2022-10-16T04:45:03;2.97;;;2.00;;
13855;SDS011;6998;53.608;9.958;2022-10-16T04:47:31;6.32;;;2.17;;
13855;SDS011;6998;53.608;9.958;2022-10-16T04:49:58;7.03;;;1.73;;
13855;SDS011;6998;53.608;9.958;2022-10-16T04:52:28;5.93;;;1.80;;
13855;SDS011;6998;53.608;9.958;2022-10-16T04:54:56;4.13;;;1.95;;
13855;SDS011;6998;53.608;9.958;2022-10-16T04:57:26;6.90;;;2.08;;
13855;SDS011;6998;53.608;9.958;2022-10-16T04:59:53;5.85;;;2.20;;
13855;SDS011;6998;53.608;9.958;2022-10-16T05:02:19;5.60;;;2.22;;
13855;SDS011;6998;53.608;9.958;2022-10-16T05:04:46;4.75;;;2.55;;
13855;SDS011;6998;53.608;9.958;2022-10-16T05:07:13;2.83;;;2.10;;
13855;SDS011;6998;53.608;9.958;2022-10-16T05:09:41;5.30;;;2.53;;
13855;SDS011;6998;53.608;9.958;2022-10-16T05:12:07;5.53;;;2.70;;
13855;SDS011;6998;53.608;9.958;2022-10-16T05:14:34;5.53;;;2.97;;
13855;SDS011;6998;53.608;9.958;2022-10-16T05:17:01;4.57;;;2.67;;
13855;SDS011;6998;53.608;9.958;2022-10-16T05:19:28;7.55;;;3.00;;
13855;SDS011;6998;53.608;9.958;2022-10-16T05:21:54;4.45;;;2.88;;
13855;SDS011;6998;53.608;9.958;2022-10-16T05:24:21;5.88;;;3.30;;
13855;SDS011;6998;53.608;9.958;2022-10-16T05:26:49;10.52;;;3.38;;
13855;SDS011;6998;53.608;9.958;2022-10-16T05:29:16;6.03;;;3.05;;
13855;SDS011;6998;53.608;9.958;2022-10-16T05:31:43;5.22;;;2.97;;
13855;SDS011;6998;53.608;9.958;2022-10-16T05:34:10;6.28;;;3.30;;
13855;SDS011;6998;53.608;9.958;2022-10-16T05:36:36;5.72;;;3.40;;
13855;SDS011;6998;53.608;9.958;2022-10-16T05:39:05;7.03;;;3.00;;
13855;SDS011;6998;53.608;9.958;2022-10-16T05:41:32;4.68;;;3.05;;
13855;SDS011;6998;53.608;9.958;2022-10-16T05:44:00;7.72;;;3.53;;
13855;SDS011;6998;53.608;9.958;2022-10-16T05:46:30;8.13;;;3.60;;
13855;SDS011;6998;53.608;9.958;2022-10-16T05:48:57;4.22;;;3.40;;
13855;SDS011;6998;53.608;9.958;2022-10-16T05:51:23;8.35;;;3.75;;
13855;SDS011;6998;53.608;9.958;2022-10-16T05:53:51;6.93;;;3.40;;
13855;SDS011;6998;53.608;9.958;2022-10-16T05:56:18;6.70;;;3.33;;
13855;SDS011;6998;53.608;9.958;2022-10-16T05:58:45;8.00;;;3.22;;
13855;SDS011;6998;53.608;9.958;2022-10-16T06:01:14;6.03;;;2.97;;
13855;SDS011;6998;53.608;9.958;2022-10-16T06:03:41;7.95;;;3.33;;
13855;SDS011;6998;53.608;9.958;2022-10-16T06:06:09;9.15;;;2.75;;
13855;SDS011;6998;53.608;9.958;2022-10-16T06:08:36;4.22;;;3.00;;
13855;SDS011;6998;53.608;9.958;2022-10-16T06:11:03;4.78;;;2.85;;
13855;SDS011;6998;53.608;9.958;2022-10-16T06:13:31;5.28;;;2.92;;
13855;SDS011;6998;53.608;9.958;2022-10-16T06:15:58;3.75;;;2.70;;
13855;SDS011;6998;53.608;9.958;2022-10-16T06:18:27;4.75;;;2.47;;
13855;SDS011;6998;53.608;9.958;2022-10-16T06:20:55;7.40;;;2.80;;
13855;SDS011;6998;53.608;9.958;2022-10-16T06:23:22;5.70;;;2.55;;
13855;SDS011;6998;53.608;9.958;2022-10-16T06:25:49;5.68;;;2.80;;
13855;SDS011;6998;53.608;9.958;2022-10-16T06:28:16;5.15;;;2.75;;
13855;SDS011;6998;53.608;9.958;2022-10-16T06:30:43;6.80;;;3.25;;
13855;SDS011;6998;53.608;9.958;2022-10-16T06:33:10;7.57;;;2.75;;
13855;SDS011;6998;53.608;9.958;2022-10-16T06:35:38;6.45;;;2.88;;
13855;SDS011;6998;53.608;9.958;2022-10-16T06:38:05;5.07;;;2.63;;
13855;SDS011;6998;53.608;9.958;2022-10-16T06:40:32;4.68;;;2.83;;
13855;SDS011;6998;53.608;9.958;2022-10-16T06:42:58;5.47;;;2.83;;
13855;SDS011;6998;53.608;9.958;2022-10-16T06:45:25;6.38;;;2.97;;
13855;SDS011;6998;53.608;9.958;2022-10-16T06:47:52;5.32;;;2.80;;
13855;SDS011;6998;53.608;9.958;2022-10-16T06:50:18;6.38;;;2.67;;
13855;SDS011;6998;53.608;9.958;2022-10-16T06:52:46;4.63;;;2.55;;
13855;SDS011;6998;53.608;9.958;2022-10-16T06:55:13;5.20;;;2.90;;
13855;SDS011;6998;53.608;9.958;2022-10-16T06:57:41;5.78;;;2.85;;
13855;SDS011;6998;53.608;9.958;2022-10-16T07:00:08;4.35;;;3.00;;
13855;SDS011;6998;53.608;9.958;2022-10-16T07:02:35;7.03;;;3.25;;
13855;SDS011;6998;53.608;9.958;2022-10-16T07:05:02;4.97;;;2.90;;
13855;SDS011;6998;53.608;9.958;2022-10-16T07:07:30;6.45;;;3.03;;
13855;SDS011;6998;53.608;9.958;2022-10-16T07:09:58;4.97;;;3.10;;
13855;SDS011;6998;53.608;9.958;2022-10-16T07:12:24;5.90;;;2.92;;
13855;SDS011;6998;53.608;9.958;2022-10-16T07:14:51;6.43;;;2.97;;
13855;SDS011;6998;53.608;9.958;2022-10-16T07:17:19;5.47;;;3.30;;
13855;SDS011;6998;53.608;9.958;2022-10-16T07:19:46;6.45;;;3.20;;
13855;SDS011;6998;53.608;9.958;2022-10-16T07:22:13;5.32;;;3.17;;
13855;SDS011;6998;53.608;9.958;2022-10-16T07:24:39;5.15;;;3.08;;
13855;SDS011;6998;53.608;9.958;2022-10-16T07:27:07;6.53;;;3.38;;
13855;SDS011;6998;53.608;9.958;2022-10-16T07:29:34;4.72;;;3.20;;
13855;SDS011;6998;53.608;9.958;2022-10-16T07:32:01;4.55;;;3.30;;
13855;SDS011;6998;53.608;9.958;2022-10-16T07:34:28;4.32;;;3.22;;
13855;SDS011;6998;53.608;9.958;2022-10-16T07:36:55;4.93;;;3.58;;
13855;SDS011;6998;53.608;9.958;2022-10-16T07:39:22;6.15;;;3.67;;
13855;SDS011;6998;53.608;9.958;2022-10-16T07:41:48;5.75;;;3.40;;
13855;SDS011;6998;53.608;9.958;2022-10-16T07:44:16;6.93;;;3.88;;
13855;SDS011;6998;53.608;9.958;2022-10-16T07:46:43;4.57;;;3.50;;
13855;SDS011;6998;53.608;9.958;2022-10-16T07:49:10;6.65;;;3.35;;
13855;SDS011;6998;53.608;9.958;2022-10-16T07:51:37;5.63;;;3.72;;
13855;SDS011;6998;53.608;9.958;2022-10-16T07:54:04;4.10;;;3.25;;
13855;SDS011;6998;53.608;9.958;2022-10-16T07:56:31;9.10;;;3.95;;
13855;SDS011;6998;53.608;9.958;2022-10-16T07:58:58;5.93;;;3.70;;
13855;SDS011;6998;53.608;9.958;2022-10-16T08:01:26;5.55;;;3.38;;
13855;SDS011;6998;53.608;9.958;2022-10-16T08:03:54;5.45;;;3.97;;
13855;SDS011;6998;53.608;9.958;2022-10-16T08:06:21;10.82;;;3.90;;
13855;SDS011;6998;53.608;9.958;2022-10-16T08:08:48;4.45;;;3.40;;
13855;SDS011;6998;53.608;9.958;2022-10-16T08:11:15;7.05;;;3.70;;
13855;SDS011;6998;53.608;9.958;2022-10-16T08:13:42;5.65;;;3.30;;
13855;SDS011;6998;53.608;9.958;2022-10-16T08:16:09;6.35;;;3.58;;
13855;SDS011;6998;53.608;9.958;2022-10-16T08:18:38;5.75;;;3.88;;
13855;SDS011;6998;53.608;9.958;2022-10-16T08:21:05;5.03;;;3.60;;
13855;SDS011;6998;53.608;9.958;2022-10-16T08:23:33;10.18;;;3.60;;
13855;SDS011;6998;53.608;9.958;2022-10-16T08:26:04;4.13;;;3.58;;
13855;SDS011;6998;53.608;9.958;2022-10-16T08:28:32;7.38;;;3.60;;
13855;SDS011;6998;53.608;9.958;2022-10-16T08:31:05;5.53;;;3.67;;
13855;SDS011;6998;53.608;9.958;2022-10-16T08:33:38;5.07;;;3.28;;
13855;SDS011;6998;53.608;9.958;2022-10-16T08:36:06;6.10;;;3.38;;
13855;SDS011;6998;53.608;9.958;2022-10-16T08:38:33;6.30;;;3.42;;
13855;SDS011;6998;53.608;9.958;2022-10-16T08:41:03;7.10;;;3.60;;
13855;SDS011;6998;53.608;9.958;2022-10-16T08:46:46;5.57;;;3.55;;
13855;SDS011;6998;53.608;9.958;2022-10-16T08:49:23;7.00;;;3.33;;
13855;SDS011;6998;53.608;9.958;2022-10-16T08:51:50;3.92;;;2.92;;
13855;SDS011;6998;53.608;9.958;2022-10-16T08:54:22;4.97;;;3.17;;
13855;SDS011;6998;53.608;9.958;2022-10-16T08:56:55;3.72;;;3.20;;
13855;SDS011;6998;53.608;9.958;2022-10-16T08:59:22;6.13;;;3.13;;
13855;SDS011;6998;53.608;9.958;2022-10-16T09:01:49;5.78;;;2.92;;
13855;SDS011;6998;53.608;9.958;2022-10-16T09:04:30;5.75;;;2.90;;
13855;SDS011;6998;53.608;9.958;2022-10-16T09:07:12;3.50;;;2.55;;
13855;SDS011;6998;53.608;9.958;2022-10-16T09:09:56;4.05;;;2.67;;
13855;SDS011;6998;53.608;9.958;2022-10-16T09:12:35;6.35;;;2.45;;
13855;SDS011;6998;53.608;9.958;2022-10-16T09:15:07;4.60;;;2.30;;
13855;SDS011;6998;53.608;9.958;2022-10-16T09:17:45;5.18;;;2.65;;
13855;SDS011;6998;53.608;9.958;2022-10-16T09:20:22;4.35;;;2.30;;
13855;SDS011;6998;53.608;9.958;2022-10-16T09:23:00;2.90;;;2.53;;
13855;SDS011;6998;53.608;9.958;2022-10-16T09:25:39;5.28;;;2.40;;
13855;SDS011;6998;53.608;9.958;2022-10-16T09:28:09;5.53;;;2.03;;
13855;SDS011;6998;53.608;9.958;2022-10-16T09:30:36;4.78;;;2.33;;
13855;SDS011;6998;53.608;9.958;2022-10-16T09:33:04;3.88;;;2.17;;
13855;SDS011;6998;53.608;9.958;2022-10-16T09:35:35;5.30;;;1.88;;
13855;SDS011;6998;53.608;9.958;2022-10-16T09:38:05;4.60;;;1.90;;
13855;SDS011;6998;53.608;9.958;2022-10-16T09:40:33;4.75;;;2.10;;
13855;SDS011;6998;53.608;9.958;2022-10-16T09:43:03;4.55;;;1.77;;
13855;SDS011;6998;53.608;9.958;2022-10-16T09:45:40;3.58;;;1.85;;
13855;SDS011;6998;53.608;9.958;2022-10-16T09:48:10;8.75;;;2.10;;
13855;SDS011;6998;53.608;9.958;2022-10-16T09:50:39;4.50;;;1.80;;
13855;SDS011;6998;53.608;9.958;2022-10-16T09:53:10;5.60;;;2.10;;
13855;SDS011;6998;53.608;9.958;2022-10-16T09:55:47;4.07;;;2.08;;
13855;SDS011;6998;53.608;9.958;2022-10-16T09:58:15;4.35;;;1.73;;
13855;SDS011;6998;53.608;9.958;2022-10-16T10:00:42;3.28;;;1.80;;
13855;SDS011;6998;53.608;9.958;2022-10-16T10:03:16;4.47;;;2.00;;
13855;SDS011;6998;53.608;9.958;2022-10-16T10:06:07;5.55;;;1.90;;
13855;SDS011;6998;53.608;9.958;2022-10-16T10:08:56;4.70;;;2.22;;
13855;SDS011;6998;53.608;9.958;2022-10-16T10:11:41;4.57;;;1.83;;
13855;SDS011;6998;53.608;9.958;2022-10-16T10:14:18;4.00;;;1.60;;
13855;SDS011;6998;53.608;9.958;2022-10-16T10:16:47;2.65;;;1.50;;
13855;SDS011;6998;53.608;9.958;2022-10-16T10:19:16;5.45;;;1.98;;
13855;SDS011;6998;53.608;9.958;2022-10-16T10:21:45;3.55;;;2.20;;
13855;SDS011;6998;53.608;9.958;2022-10-16T10:24:12;6.82;;;2.03;;
13855;SDS011;6998;53.608;9.958;2022-10-16T10:26:42;4.70;;;1.60;;
13855;SDS011;6998;53.608;9.958;2022-10-16T10:29:17;4.25;;;1.67;;
13855;SDS011;6998;53.608;9.958;2022-10-16T10:31:54;5.40;;;2.33;;
13855;SDS011;6998;53.608;9.958;2022-10-16T10:34:35;4.57;;;1.85;;
13855;SDS011;6998;53.608;9.958;2022-10-16T10:37:16;5.40;;;2.00;;
13855;SDS011;6998;53.608;9.958;2022-10-16T10:39:56;6.20;;;1.92;;
13855;SDS011;6998;53.608;9.958;2022-10-16T10:42:31;4.85;;;1.65;;
13855;SDS011;6998;53.608;9.958;2022-10-16T10:45:11;3.70;;;1.48;;
13855;SDS011;6998;53.608;9.958;2022-10-16T10:47:47;4.60;;;1.45;;
13855;SDS011;6998;53.608;9.958;2022-10-16T10:50:21;4.88;;;1.60;;
13855;SDS011;6998;53.608;9.958;2022-10-16T10:52:56;2.90;;;1.50;;
13855;SDS011;6998;53.608;9.958;2022-10-16T10:55:31;6.95;;;1.50;;
13855;SDS011;6998;53.608;9.958;2022-10-16T10:58:21;4.57;;;1.65;;
13855;SDS011;6998;53.608;9.958;2022-10-16T11:00:56;4.78;;;1.60;;
13855;SDS011;6998;53.608;9.958;2022-10-16T11:06:33;5.63;;;1.40;;
13855;SDS011;6998;53.608;9.958;2022-10-16T11:09:09;3.70;;;1.25;;
13855;SDS011;6998;53.608;9.958;2022-10-16T11:11:40;4.05;;;1.38;;
13855;SDS011;6998;53.608;9.958;2022-10-16T11:14:13;5.80;;;1.33;;
13855;SDS011;6998;53.608;9.958;2022-10-16T11:16:46;2.28;;;1.48;;
13855;SDS011;6998;53.608;9.958;2022-10-16T11:19:19;3.72;;;1.20;;
13855;SDS011;6998;53.608;9.958;2022-10-16T11:21:51;3.20;;;1.38;;
13855;SDS011;6998;53.608;9.958;2022-10-16T11:24:29;5.40;;;1.40;;
13855;SDS011;6998;53.608;9.958;2022-10-16T11:27:03;3.97;;;1.27;;
13855;SDS011;6998;53.608;9.958;2022-10-16T11:29:34;3.72;;;1.25;;
13855;SDS011;6998;53.608;9.958;2022-10-16T11:32:10;3.47;;;1.23;;
13855;SDS011;6998;53.608;9.958;2022-10-16T11:34:47;4.05;;;1.27;;
13855;SDS011;6998;53.608;9.958;2022-10-16T11:37:17;1.95;;;1.10;;
13855;SDS011;6998;53.608;9.958;2022-10-16T11:39:47;2.15;;;1.00;;
13855;SDS011;6998;53.608;9.958;2022-10-16T11:42:16;2.13;;;1.00;;
13855;SDS011;6998;53.608;9.958;2022-10-16T11:44:50;1.70;;;1.10;;
13855;SDS011;6998;53.608;9.958;2022-10-16T11:47:26;6.05;;;1.38;;
13855;SDS011;6998;53.608;9.958;2022-10-16T11:49:59;5.22;;;1.40;;
13855;SDS011;6998;53.608;9.958;2022-10-16T11:52:30;3.35;;;1.35;;
13855;SDS011;6998;53.608;9.958;2022-10-16T11:55:04;4.68;;;1.20;;
13855;SDS011;6998;53.608;9.958;2022-10-16T11:57:40;4.35;;;1.80;;
13855;SDS011;6998;53.608;9.958;2022-10-16T12:00:14;6.75;;;1.40;;
13855;SDS011;6998;53.608;9.958;2022-10-16T12:02:55;4.43;;;1.50;;
13855;SDS011;6998;53.608;9.958;2022-10-16T12:05:28;4.57;;;1.40;;
13855;SDS011;6998;53.608;9.958;2022-10-16T12:08:04;6.10;;;1.42;;
13855;SDS011;6998;53.608;9.958;2022-10-16T12:10:37;2.58;;;1.30;;
13855;SDS011;6998;53.608;9.958;2022-10-16T12:13:25;3.45;;;1.30;;
13855;SDS011;6998;53.608;9.958;2022-10-16T12:16:03;4.25;;;1.20;;
13855;SDS011;6998;53.608;9.958;2022-10-16T12:18:31;5.80;;;1.40;;
13855;SDS011;6998;53.608;9.958;2022-10-16T12:20:58;4.55;;;1.23;;
13855;SDS011;6998;53.608;9.958;2022-10-16T12:23:30;3.33;;;1.27;;
13855;SDS011;6998;53.608;9.958;2022-10-16T12:25:59;2.95;;;1.40;;
13855;SDS011;6998;53.608;9.958;2022-10-16T12:28:27;4.43;;;1.52;;
13855;SDS011;6998;53.608;9.958;2022-10-16T12:30:56;6.13;;;1.48;;
13855;SDS011;6998;53.608;9.958;2022-10-16T12:33:25;3.08;;;1.20;;
13855;SDS011;6998;53.608;9.958;2022-10-16T12:35:54;4.15;;;1.50;;
13855;SDS011;6998;53.608;9.958;2022-10-16T12:38:21;4.85;;;1.33;;
13855;SDS011;6998;53.608;9.958;2022-10-16T12:40:56;4.72;;;1.50;;
13855;SDS011;6998;53.608;9.958;2022-10-16T12:43:27;4.90;;;1.20;;
13855;SDS011;6998;53.608;9.958;2022-10-16T12:46:03;3.05;;;1.40;;
13855;SDS011;6998;53.608;9.958;2022-10-16T12:48:44;5.93;;;1.50;;
13855;SDS011;6998;53.608;9.958;2022-10-16T12:51:20;2.67;;;1.17;;
13855;SDS011;6998;53.608;9.958;2022-10-16T12:53:57;7.10;;;1.50;;
13855;SDS011;6998;53.608;9.958;2022-10-16T12:56:27;2.03;;;1.17;;
13855;SDS011;6998;53.608;9.958;2022-10-16T12:59:05;5.13;;;1.58;;
13855;SDS011;6998;53.608;9.958;2022-10-16T13:01:42;8.98;;;1.45;;
13855;SDS011;6998;53.608;9.958;2022-10-16T13:04:24;4.25;;;1.40;;
13855;SDS011;6998;53.608;9.958;2022-10-16T13:07:12;3.15;;;1.30;;
13855;SDS011;6998;53.608;9.958;2022-10-16T13:09:52;4.75;;;1.25;;
13855;SDS011;6998;53.608;9.958;2022-10-16T13:12:33;3.30;;;1.20;;
13855;SDS011;6998;53.608;9.958;2022-10-16T13:15:30;3.35;;;1.20;;
13855;SDS011;6998;53.608;9.958;2022-10-16T13:18:19;5.60;;;1.60;;
13855;SDS011;6998;53.608;9.958;2022-10-16T13:20:55;4.25;;;1.15;;
13855;SDS011;6998;53.608;9.958;2022-10-16T13:23:33;4.47;;;1.75;;
13855;SDS011;6998;53.608;9.958;2022-10-16T13:26:09;4.78;;;1.35;;
13855;SDS011;6998;53.608;9.958;2022-10-16T13:28:44;5.32;;;1.40;;
13855;SDS011;6998;53.608;9.958;2022-10-16T13:31:13;4.20;;;1.25;;
13855;SDS011;6998;53.608;9.958;2022-10-16T13:33:45;4.32;;;1.35;;
13855;SDS011;6998;53.608;9.958;2022-10-16T13:36:20;5.20;;;1.55;;
13855;SDS011;6998;53.608;9.958;2022-10-16T13:38:48;5.93;;;1.52;;
13855;SDS011;6998;53.608;9.958;2022-10-16T13:41:27;4.18;;;1.38;;
13855;SDS011;6998;53.608;9.958;2022-10-16T13:43:55;6.13;;;1.30;;
13855;SDS011;6998;53.608;9.958;2022-10-16T13:46:23;3.92;;;1.30;;
13855;SDS011;6998;53.608;9.958;2022-10-16T13:48:57;5.05;;;1.42;;
13855;SDS011;6998;53.608;9.958;2022-10-16T13:51:25;5.40;;;1.45;;
13855;SDS011;6998;53.608;9.958;2022-10-16T13:53:54;4.40;;;1.50;;
13855;SDS011;6998;53.608;9.958;2022-10-16T13:56:22;2.58;;;1.02;;
13855;SDS011;6998;53.608;9.958;2022-10-16T13:59:00;6.07;;;1.40;;
13855;SDS011;6998;53.608;9.958;2022-10-16T14:01:27;4.68;;;1.38;;
13855;SDS011;6998;53.608;9.958;2022-10-16T14:04:00;3.70;;;1.20;;
13855;SDS011;6998;53.608;9.958;2022-10-16T14:06:30;4.28;;;1.13;;
13855;SDS011;6998;53.608;9.958;2022-10-16T14:08:59;4.47;;;1.33;;
13855;SDS011;6998;53.608;9.958;2022-10-16T14:11:27;4.55;;;1.17;;
13855;SDS011;6998;53.608;9.958;2022-10-16T14:13:55;5.10;;;1.35;;
13855;SDS011;6998;53.608;9.958;2022-10-16T14:16:24;4.32;;;1.50;;
13855;SDS011;6998;53.608;9.958;2022-10-16T14:18:57;5.95;;;1.30;;
13855;SDS011;6998;53.608;9.958;2022-10-16T14:21:26;2.97;;;1.27;;
13855;SDS011;6998;53.608;9.958;2022-10-16T14:23:53;3.42;;;1.10;;
13855;SDS011;6998;53.608;9.958;2022-10-16T14:26:21;3.85;;;1.33;;
13855;SDS011;6998;53.608;9.958;2022-10-16T14:29:01;4.18;;;1.30;;
13855;SDS011;6998;53.608;9.958;2022-10-16T14:31:32;3.72;;;1.38;;
13855;SDS011;6998;53.608;9.958;2022-10-16T14:34:01;3.33;;;1.30;;
13855;SDS011;6998;53.608;9.958;2022-10-16T14:36:28;5.82;;;1.67;;
13855;SDS011;6998;53.608;9.958;2022-10-16T14:39:00;6.15;;;1.50;;
13855;SDS011;6998;53.608;9.958;2022-10-16T14:41:32;6.38;;;1.67;;
13855;SDS011;6998;53.608;9.958;2022-10-16T14:44:09;4.60;;;1.48;;
13855;SDS011;6998;53.608;9.958;2022-10-16T14:46:39;4.75;;;1.40;;
13855;SDS011;6998;53.608;9.958;2022-10-16T14:49:13;6.50;;;1.70;;
13855;SDS011;6998;53.608;9.958;2022-10-16T14:51:43;7.70;;;1.80;;
13855;SDS011;6998;53.608;9.958;2022-10-16T14:54:11;5.70;;;1.40;;
13855;SDS011;6998;53.608;9.958;2022-10-16T14:56:42;5.38;;;1.60;;
13855;SDS011;6998;53.608;9.958;2022-10-16T14:59:13;5.07;;;1.60;;
13855;SDS011;6998;53.608;9.958;2022-10-16T15:01:43;3.45;;;1.40;;
13855;SDS011;6998;53.608;9.958;2022-10-16T15:04:11;8.63;;;1.75;;
13855;SDS011;6998;53.608;9.958;2022-10-16T15:06:39;3.90;;;1.40;;
13855;SDS011;6998;53.608;9.958;2022-10-16T15:09:06;4.03;;;1.52;;
13855;SDS011;6998;53.608;9.958;2022-10-16T15:11:33;5.65;;;1.88;;
13855;SDS011;6998;53.608;9.958;2022-10-16T15:14:00;3.58;;;1.70;;
13855;SDS011;6998;53.608;9.958;2022-10-16T15:16:26;4.10;;;1.50;;
13855;SDS011;6998;53.608;9.958;2022-10-16T15:18:54;7.25;;;1.80;;
13855;SDS011;6998;53.608;9.958;2022-10-16T15:21:23;4.95;;;1.35;;
13855;SDS011;6998;53.608;9.958;2022-10-16T15:23:52;6.20;;;1.80;;
13855;SDS011;6998;53.608;9.958;2022-10-16T15:26:18;4.03;;;1.50;;